createdAt,value
2022-12-03T00:00:19.575Z,20.33
2022-12-03T00:03:28.505Z,18.83
2022-12-03T00:06:37.368Z,19.83
2022-12-03T00:09:46.368Z,21.67
2022-12-03T00:12:55.369Z,23.52
2022-12-03T00:16:04.462Z,21.33
2022-12-03T00:19:13.367Z,20.60
2022-12-03T00:22:22.367Z,19.40
2022-12-03T00:25:42.990Z,20.70
2022-12-03T00:28:56.303Z,21.15
2022-12-03T00:32:10.160Z,20.50
2022-12-03T00:35:19.368Z,20.73
2022-12-03T00:38:28.370Z,20.05
2022-12-03T00:41:37.365Z,20.35
2022-12-03T00:44:46.364Z,20.20
2022-12-03T00:47:55.366Z,19.73
2022-12-03T00:51:04.372Z,19.20
2022-12-03T00:54:13.363Z,19.52
2022-12-03T00:57:22.364Z,19.05
2022-12-03T01:00:31.362Z,20.75
2022-12-03T01:03:40.363Z,19.47
2022-12-03T01:06:49.366Z,18.70
2022-12-03T01:09:58.363Z,19.40
2022-12-03T01:13:07.366Z,18.08
2022-12-03T01:16:16.429Z,17.85
2022-12-03T01:19:25.365Z,18.03
2022-12-03T01:22:34.364Z,19.23
2022-12-03T01:25:43.365Z,19.25
2022-12-03T01:28:52.364Z,18.05
2022-12-03T01:32:22.364Z,17.85
2022-12-03T01:35:31.364Z,19.60
2022-12-03T01:38:40.365Z,19.07
2022-12-03T01:41:49.376Z,19.05
2022-12-03T01:44:58.784Z,19.58
2022-12-03T01:48:07.369Z,18.98
2022-12-03T01:51:17.305Z,21.00
2022-12-03T01:54:46.376Z,19.90
2022-12-03T01:58:07.698Z,19.40
2022-12-03T02:01:23.788Z,19.58
2022-12-03T02:04:34.471Z,19.50
2022-12-03T02:07:44.462Z,21.13
2022-12-03T02:10:53.303Z,21.97
2022-12-03T02:14:11.797Z,20.52
2022-12-03T02:17:25.487Z,19.95
2022-12-03T02:20:40.682Z,19.73
2022-12-03T02:24:10.473Z,21.20
2022-12-03T02:27:19.368Z,20.83
2022-12-03T02:30:34.074Z,19.65
2022-12-03T02:33:50.203Z,19.50
2022-12-03T02:37:04.529Z,19.88
2022-12-03T02:40:17.200Z,21.63
2022-12-03T02:43:26.413Z,18.50
2022-12-03T02:46:38.438Z,18.73
2022-12-03T02:49:48.410Z,18.50
2022-12-03T02:53:06.260Z,18.88
2022-12-03T02:56:22.281Z,17.70
2022-12-03T02:59:31.364Z,17.60
2022-12-03T03:02:49.589Z,18.73
2022-12-03T03:06:04.144Z,18.23
2022-12-03T03:09:17.648Z,16.13
2022-12-03T03:12:28.365Z,17.10
2022-12-03T03:15:44.494Z,19.70
2022-12-03T03:18:57.200Z,17.30
2022-12-03T03:22:11.153Z,17.58
2022-12-03T03:25:26.301Z,17.42
2022-12-03T03:28:43.247Z,17.23
2022-12-03T03:31:59.888Z,16.57
2022-12-03T03:35:13.366Z,17.15
2022-12-03T03:38:23.301Z,17.35
2022-12-03T03:41:40.561Z,16.33
2022-12-03T03:44:53.341Z,17.57
2022-12-03T03:48:08.141Z,18.07
2022-12-03T03:51:19.366Z,17.40
2022-12-03T03:54:29.093Z,16.58
2022-12-03T03:57:37.780Z,16.77
2022-12-03T04:00:47.764Z,16.23
2022-12-03T04:04:00.434Z,16.93
2022-12-03T04:07:06.062Z,15.88
2022-12-03T04:10:44.640Z,17.23
2022-12-03T04:14:01.078Z,17.27
2022-12-03T04:17:13.365Z,16.23
2022-12-03T04:20:22.468Z,17.00
2022-12-03T04:23:31.363Z,19.48
2022-12-03T04:27:01.365Z,17.98
2022-12-03T04:30:10.367Z,17.25
2022-12-03T04:33:38.800Z,17.70
2022-12-03T04:36:49.365Z,18.40
2022-12-03T04:39:59.404Z,18.08
2022-12-03T04:43:08.301Z,17.15
2022-12-03T04:46:17.481Z,17.02
2022-12-03T04:49:26.406Z,17.33
2022-12-03T04:52:39.932Z,17.77
2022-12-03T04:55:52.660Z,19.27
2022-12-03T04:59:07.233Z,18.00
2022-12-03T05:02:22.436Z,18.35
2022-12-03T05:05:39.952Z,18.47
2022-12-03T05:08:52.627Z,18.13
2022-12-03T05:12:06.009Z,19.63
2022-12-03T05:15:19.365Z,19.58
2022-12-03T05:18:28.376Z,18.88
2022-12-03T05:21:37.363Z,18.57
2022-12-03T05:24:47.406Z,16.43
2022-12-03T05:27:56.300Z,18.33
2022-12-03T05:31:06.578Z,19.10
2022-12-03T05:34:14.712Z,18.98
2022-12-03T05:37:22.781Z,18.70
2022-12-03T05:40:31.683Z,18.53
2022-12-03T05:43:41.410Z,18.48
2022-12-03T05:46:50.309Z,18.42
2022-12-03T06:38:42.740Z,17.93
2022-12-03T06:42:10.781Z,19.63
2022-12-03T06:45:25.757Z,19.23
2022-12-03T06:48:44.923Z,19.23
2022-12-03T06:51:59.697Z,19.52
2022-12-03T06:55:16.434Z,19.03
2022-12-03T06:58:31.182Z,19.33
2022-12-03T07:01:44.266Z,18.63
2022-12-03T07:04:54.981Z,19.65
2022-12-03T07:08:08.550Z,19.45
2022-12-03T07:11:34.780Z,19.77
2022-12-03T07:21:40.081Z,19.02
2022-12-03T07:35:23.599Z,19.98
2022-12-03T07:38:37.293Z,20.35
2022-12-03T07:41:55.956Z,20.67
2022-12-03T07:48:46.754Z,35.53
2022-12-03T07:52:08.417Z,31.65
2022-12-03T07:55:17.450Z,23.65
2022-12-03T08:05:46.493Z,21.53
2022-12-03T08:08:55.538Z,21.77
2022-12-03T08:12:10.482Z,20.33
2022-12-03T08:15:39.331Z,21.90
2022-12-03T08:19:02.961Z,20.57
2022-12-03T08:22:52.627Z,22.50
2022-12-03T08:29:55.784Z,22.30
2022-12-03T08:33:41.715Z,25.27
2022-12-03T08:37:12.947Z,22.43
2022-12-03T08:40:43.696Z,22.73
2022-12-03T08:43:56.809Z,23.42
2022-12-03T08:47:27.322Z,24.33
2022-12-03T08:50:55.527Z,23.42
2022-12-03T08:54:23.885Z,25.43
2022-12-03T09:01:45.905Z,24.05
2022-12-03T09:04:56.486Z,24.98
2022-12-03T09:11:38.710Z,26.57
2022-12-03T09:14:54.551Z,28.37
2022-12-03T09:18:26.449Z,26.85
2022-12-03T09:32:58.733Z,29.00
2022-12-03T09:36:30.204Z,28.42
2022-12-03T09:39:39.963Z,28.23
2022-12-03T09:44:03.171Z,26.33
2022-12-03T09:47:15.332Z,27.00
2022-12-03T09:50:36.370Z,27.70
2022-12-03T09:53:52.113Z,29.20
2022-12-03T10:04:28.019Z,28.93
2022-12-03T10:07:38.515Z,28.47
2022-12-03T10:14:14.283Z,26.75
2022-12-03T10:24:49.772Z,31.17
2022-12-03T10:32:04.672Z,27.17
2022-12-03T10:36:06.343Z,27.52
2022-12-03T10:39:27.563Z,26.13
2022-12-03T10:42:35.881Z,27.30
2022-12-03T10:45:46.038Z,26.38
2022-12-03T10:49:13.501Z,26.98
2022-12-03T10:52:26.152Z,24.77
2022-12-03T10:55:40.302Z,26.17
2022-12-03T10:58:57.135Z,26.00
2022-12-03T11:02:13.059Z,25.48
2022-12-03T11:05:35.125Z,27.15
2022-12-03T11:08:54.716Z,27.00
2022-12-03T11:12:14.063Z,26.60
2022-12-03T11:15:49.581Z,26.23
2022-12-03T11:22:48.655Z,27.52
2022-12-03T11:30:04.980Z,28.40
2022-12-03T11:37:22.991Z,25.20
2022-12-03T11:40:39.795Z,24.25
2022-12-03T11:51:34.012Z,24.47
2022-12-03T11:54:42.357Z,25.08
2022-12-03T12:35:57.139Z,23.83
2022-12-03T12:39:07.029Z,25.15
2022-12-03T12:42:37.779Z,26.27
2022-12-03T12:45:47.415Z,25.08
2022-12-03T12:49:11.350Z,24.10
2022-12-03T12:55:44.826Z,25.13
2022-12-03T12:58:59.889Z,24.25
2022-12-03T13:02:40.326Z,25.25
2022-12-03T13:05:56.778Z,24.70
2022-12-03T13:09:34.176Z,23.83
2022-12-03T13:12:43.618Z,24.25
2022-12-03T13:16:13.475Z,24.67
2022-12-03T13:19:46.707Z,24.88
2022-12-03T13:22:59.471Z,23.73
2022-12-03T13:26:40.536Z,25.43
2022-12-03T13:30:14.413Z,26.77
2022-12-03T13:33:32.848Z,26.48
2022-12-03T13:40:24.079Z,28.60
2022-12-03T13:43:44.499Z,26.97
2022-12-03T13:46:55.033Z,26.63
2022-12-03T13:50:08.571Z,28.90
2022-12-03T13:53:24.942Z,29.13
2022-12-03T13:56:36.067Z,29.70
2022-12-03T13:59:46.599Z,25.90
2022-12-03T14:03:00.606Z,32.78
2022-12-03T14:06:14.592Z,34.00
2022-12-03T14:09:25.471Z,26.92
2022-12-03T14:12:35.112Z,27.67
2022-12-03T14:15:43.579Z,27.93
2022-12-03T14:18:52.683Z,29.40
2022-12-03T14:22:01.591Z,28.95
2022-12-03T14:25:10.578Z,28.00
2022-12-03T14:28:19.382Z,28.30
2022-12-03T14:31:28.528Z,29.10
2022-12-03T14:34:37.367Z,31.77
2022-12-03T14:37:46.395Z,31.23
2022-12-03T14:40:55.373Z,30.25
2022-12-03T14:44:05.005Z,29.37
2022-12-03T14:47:14.718Z,31.10
2022-12-03T14:50:23.433Z,35.83
2022-12-03T14:53:32.425Z,42.50
2022-12-03T14:56:41.422Z,45.90
2022-12-03T15:00:00.165Z,42.63
2022-12-03T15:03:18.236Z,36.80
2022-12-03T15:06:28.367Z,35.42
2022-12-03T15:09:37.376Z,32.75
2022-12-03T15:12:46.385Z,33.97
2022-12-03T15:15:55.376Z,38.90
2022-12-03T15:19:04.376Z,49.33
2022-12-03T15:22:13.688Z,52.03
2022-12-03T15:25:27.400Z,44.97
2022-12-03T15:28:46.690Z,42.92
2022-12-03T15:32:01.392Z,43.43
2022-12-03T15:35:10.379Z,41.57
2022-12-03T15:38:19.390Z,44.75
2022-12-03T15:41:48.389Z,44.67
2022-12-03T15:44:58.370Z,41.30
2022-12-03T15:48:08.120Z,40.40
2022-12-03T15:51:16.678Z,41.00
2022-12-03T15:54:25.377Z,40.92
2022-12-03T15:57:34.367Z,40.97
2022-12-03T16:00:44.422Z,40.47
2022-12-03T16:03:53.306Z,37.17
2022-12-03T16:07:02.309Z,38.07
2022-12-03T16:10:12.154Z,40.50
2022-12-03T16:13:20.305Z,38.70
2022-12-03T16:16:29.457Z,38.13
2022-12-03T16:19:38.304Z,38.53
2022-12-03T16:22:47.412Z,40.90
2022-12-03T16:25:57.207Z,41.22
2022-12-03T16:29:05.422Z,40.53
2022-12-03T16:32:14.566Z,40.20
2022-12-03T16:35:23.302Z,42.43
2022-12-03T16:38:38.605Z,41.97
2022-12-03T16:41:55.594Z,40.38
2022-12-03T16:45:11.416Z,87.80
2022-12-03T16:48:20.411Z,47.28
2022-12-03T16:51:43.225Z,42.30
2022-12-03T16:54:58.281Z,34.50
2022-12-03T16:58:07.371Z,31.27
2022-12-03T17:01:17.162Z,30.25
2022-12-03T17:04:26.307Z,34.83
2022-12-03T17:07:42.729Z,32.00
2022-12-03T17:11:00.843Z,34.03
2022-12-03T17:14:13.374Z,32.67
2022-12-03T17:17:28.075Z,29.00
2022-12-03T17:20:51.343Z,27.70
2022-12-03T17:27:44.873Z,47.53
2022-12-03T17:31:01.468Z,48.38
2022-12-03T17:34:10.371Z,43.25
2022-12-03T17:37:18.837Z,37.53
2022-12-03T17:40:28.380Z,33.27
2022-12-03T17:43:37.373Z,30.03
2022-12-03T17:46:46.476Z,26.45
2022-12-03T17:49:56.702Z,28.48
2022-12-03T17:53:13.105Z,26.50
2022-12-03T17:56:27.834Z,26.03
2022-12-03T17:59:40.431Z,27.87
2022-12-03T18:02:52.264Z,26.77
2022-12-03T18:06:01.370Z,28.50
2022-12-03T18:09:10.368Z,27.92
2022-12-03T18:12:17.960Z,28.50
2022-12-03T18:15:28.369Z,30.80
2022-12-03T18:18:36.025Z,29.95
2022-12-03T18:21:46.368Z,29.77
2022-12-03T18:24:55.372Z,30.45
2022-12-03T18:28:04.376Z,33.37
2022-12-03T18:31:28.129Z,30.60
2022-12-03T18:34:43.367Z,31.33
2022-12-03T18:37:53.099Z,31.55
2022-12-03T18:41:01.368Z,31.30
2022-12-03T18:44:11.718Z,32.70
2022-12-03T18:47:28.233Z,32.73
2022-12-03T18:50:42.131Z,31.95
2022-12-03T18:53:57.134Z,32.95
2022-12-03T18:57:07.366Z,31.67
2022-12-03T19:00:16.367Z,34.90
2022-12-03T19:03:25.408Z,36.00
2022-12-03T19:06:35.408Z,36.20
2022-12-03T19:09:47.951Z,39.90
2022-12-03T19:13:04.238Z,41.75
2022-12-03T19:16:18.162Z,39.77
2022-12-03T19:19:31.368Z,39.87
2022-12-03T19:22:40.367Z,37.13
2022-12-03T19:26:05.647Z,40.75
2022-12-03T19:29:19.370Z,42.25
2022-12-03T19:32:28.367Z,42.00
2022-12-03T19:35:41.393Z,45.20
2022-12-03T19:38:56.680Z,49.45
2022-12-03T19:42:10.578Z,49.60
2022-12-03T19:45:24.075Z,44.60
2022-12-03T19:48:34.368Z,43.53
2022-12-03T19:51:43.366Z,36.83
2022-12-03T19:55:01.070Z,41.00
2022-12-03T19:58:17.392Z,40.72
2022-12-03T20:01:31.421Z,38.03
2022-12-03T20:04:40.366Z,36.63
2022-12-03T20:07:49.400Z,36.40
2022-12-03T20:10:58.368Z,39.80
2022-12-03T20:14:18.834Z,40.17
2022-12-03T20:17:33.620Z,37.78
2022-12-03T20:20:46.368Z,37.10
2022-12-03T20:23:55.366Z,37.40
2022-12-03T20:27:04.372Z,39.85
2022-12-03T20:30:13.368Z,42.92
2022-12-03T20:33:22.367Z,45.83
2022-12-03T20:36:31.369Z,41.63
2022-12-03T20:39:40.369Z,39.43
2022-12-03T20:42:50.198Z,38.10
2022-12-03T20:46:02.703Z,42.88
2022-12-03T20:49:19.568Z,40.15
2022-12-03T20:52:34.224Z,39.17
2022-12-03T20:55:46.368Z,37.80
2022-12-03T20:58:55.682Z,37.72
2022-12-03T21:02:04.429Z,37.58
2022-12-03T21:05:13.367Z,38.63
2022-12-03T21:08:40.226Z,48.03
2022-12-03T21:11:52.367Z,57.17
2022-12-03T21:15:01.472Z,83.13
2022-12-03T21:18:20.183Z,49.28
2022-12-03T21:21:35.501Z,41.50
2022-12-03T21:24:49.369Z,39.43
2022-12-03T21:27:58.369Z,36.57
2022-12-03T21:31:08.151Z,38.25
2022-12-03T21:34:17.302Z,37.80
2022-12-03T21:37:27.022Z,38.42
2022-12-03T21:40:35.414Z,38.67
2022-12-03T21:43:44.410Z,37.30
2022-12-03T21:47:09.146Z,37.65
2022-12-03T21:50:22.367Z,37.47
2022-12-03T21:53:31.369Z,38.75
2022-12-03T21:56:40.367Z,37.90
2022-12-03T21:59:48.851Z,38.50
2022-12-03T22:02:58.455Z,37.00
2022-12-03T22:06:07.368Z,38.10
2022-12-03T22:09:20.552Z,44.28
2022-12-03T22:12:41.922Z,38.73
2022-12-03T22:15:55.318Z,36.37
2022-12-03T22:19:04.368Z,35.90
2022-12-03T22:22:13.373Z,37.40
2022-12-03T22:25:22.370Z,36.97
2022-12-03T22:28:31.369Z,38.03
2022-12-03T22:31:40.368Z,39.83
2022-12-03T22:34:50.407Z,38.20
2022-12-03T22:37:59.304Z,41.75
2022-12-03T22:41:12.112Z,41.60
2022-12-03T22:44:25.327Z,41.33
2022-12-03T22:47:41.070Z,43.63
2022-12-03T22:50:55.364Z,40.58
2022-12-03T22:54:15.004Z,41.38
2022-12-03T22:57:29.135Z,40.67
2022-12-03T23:00:43.366Z,45.37
2022-12-03T23:03:52.418Z,44.40
2022-12-03T23:07:01.366Z,41.70
2022-12-03T23:10:10.366Z,43.50
2022-12-03T23:13:20.718Z,43.35
2022-12-03T23:16:37.029Z,42.17
2022-12-03T23:19:53.916Z,39.70
2022-12-03T23:23:07.259Z,40.95
2022-12-03T23:26:17.100Z,40.67
2022-12-03T23:29:26.095Z,38.75
2022-12-03T23:32:35.406Z,38.97
2022-12-03T23:35:44.405Z,39.70
2022-12-03T23:38:53.412Z,38.25
2022-12-03T23:42:02.708Z,36.70
2022-12-03T23:45:11.407Z,38.45
2022-12-03T23:48:20.409Z,41.93
2022-12-03T23:51:29.718Z,37.93
2022-12-03T23:54:38.717Z,36.25
2022-12-03T23:57:47.408Z,38.45
